createdAt,value
2023-03-26T06:03:47.807Z,99.99
2023-03-26T06:04:46.448Z,99.99
2023-03-26T06:05:46.563Z,99.99
2023-03-26T06:06:46.284Z,99.99
2023-03-26T06:07:46.447Z,99.99
2023-03-26T06:08:46.158Z,99.99
2023-03-26T06:09:46.258Z,99.99
2023-03-26T06:10:46.060Z,99.99
2023-03-26T06:11:47.197Z,99.99
2023-03-26T06:12:46.129Z,99.99
2023-03-26T06:13:47.108Z,99.99
2023-03-26T06:14:45.876Z,99.99
2023-03-26T06:15:46.145Z,99.99
2023-03-26T06:16:45.803Z,99.99
2023-03-26T06:17:45.834Z,99.99
2023-03-26T06:18:45.696Z,99.99
2023-03-26T06:19:45.823Z,99.99
2023-03-26T06:20:45.725Z,99.99
2023-03-26T06:21:45.547Z,99.99
2023-03-26T06:22:45.838Z,99.99
2023-03-26T06:23:45.473Z,99.99
2023-03-26T06:24:45.551Z,99.99
2023-03-26T06:25:45.355Z,99.46
2023-03-26T06:26:46.484Z,99.17
2023-03-26T06:27:45.275Z,99.99
2023-03-26T06:28:45.381Z,99.99
2023-03-26T06:29:45.220Z,99.99
2023-03-26T06:30:45.181Z,99.99
2023-03-26T06:31:45.347Z,99.99
2023-03-26T06:32:45.073Z,99.99
2023-03-26T06:33:45.100Z,99.99
2023-03-26T06:34:44.941Z,99.99
2023-03-26T06:35:45.197Z,99.99
2023-03-26T06:36:44.979Z,99.99
2023-03-26T06:37:44.816Z,99.99
2023-03-26T06:38:44.765Z,99.99
2023-03-26T06:39:44.947Z,99.99
2023-03-26T06:40:44.674Z,99.99
2023-03-26T06:41:44.756Z,99.99
2023-03-26T06:43:10.041Z,99.99
2023-03-26T06:43:44.542Z,99.99
2023-03-26T06:44:45.599Z,99.99
2023-03-26T06:45:44.670Z,99.99
2023-03-26T06:46:45.527Z,99.99
2023-03-26T06:47:44.397Z,99.99
2023-03-26T06:48:44.301Z,99.99
2023-03-26T06:49:45.443Z,99.99
2023-03-26T06:50:44.413Z,99.99
2023-03-26T06:51:44.233Z,99.99
2023-03-26T06:52:44.327Z,99.99
2023-03-26T06:53:44.177Z,99.99
2023-03-26T06:54:44.012Z,99.99
2023-03-26T06:55:44.142Z,99.99
2023-03-26T06:56:43.920Z,99.99
2023-03-26T06:57:44.059Z,99.99
2023-03-26T06:58:43.835Z,99.99
2023-03-26T06:59:43.874Z,99.99
2023-03-26T07:00:43.767Z,99.99
2023-03-26T07:01:45.862Z,99.99
2023-03-26T07:02:43.707Z,99.99
2023-03-26T07:03:43.710Z,99.99
2023-03-26T07:04:43.555Z,99.99
2023-03-26T07:05:43.765Z,99.99
2023-03-26T07:06:43.460Z,99.99
2023-03-26T07:07:46.294Z,99.99
2023-03-26T07:08:43.392Z,99.99
2023-03-26T07:09:44.351Z,99.99
2023-03-26T07:10:43.292Z,99.99
2023-03-26T07:11:43.273Z,99.99
2023-03-26T07:12:43.205Z,99.99
2023-03-26T07:13:43.356Z,99.99
2023-03-26T07:14:43.089Z,99.99
2023-03-26T07:15:44.189Z,99.99
2023-03-26T07:16:43.038Z,99.99
2023-03-26T07:17:43.056Z,99.99
2023-03-26T07:18:43.112Z,99.99
2023-03-26T07:19:42.999Z,99.99
2023-03-26T07:20:42.811Z,99.99
2023-03-26T07:21:43.835Z,99.99
2023-03-26T07:22:42.715Z,99.99
2023-03-26T07:23:42.710Z,99.99
2023-03-26T07:24:42.629Z,99.99
2023-03-26T07:25:43.647Z,99.99
2023-03-26T07:26:42.684Z,99.99
2023-03-26T07:27:42.667Z,99.99
2023-03-26T07:28:42.720Z,99.99
2023-03-26T07:29:42.396Z,99.99
2023-03-26T07:30:44.401Z,99.99
2023-03-26T07:31:42.391Z,99.99
2023-03-26T07:32:42.477Z,99.99
2023-03-26T07:33:42.215Z,99.99
2023-03-26T07:34:42.331Z,99.99
2023-03-26T07:35:42.157Z,99.99
2023-03-26T07:36:42.297Z,99.99
2023-03-26T07:37:42.037Z,99.99
2023-03-26T07:38:42.104Z,99.99
2023-03-26T07:39:41.943Z,99.99
2023-03-26T07:40:41.928Z,99.99
2023-03-26T07:41:41.853Z,99.99
2023-03-26T07:42:42.044Z,99.99
2023-03-26T07:43:41.778Z,99.99
2023-03-26T07:44:42.025Z,99.99
2023-03-26T07:45:41.695Z,99.99
2023-03-26T07:46:41.647Z,99.99
2023-03-26T07:47:41.848Z,99.99
2023-03-26T07:48:41.531Z,99.99
2023-03-26T07:49:41.651Z,99.99
2023-03-26T07:50:41.452Z,99.99
2023-03-26T07:51:41.484Z,99.99
2023-03-26T07:52:41.338Z,99.99
2023-03-26T07:53:41.506Z,99.99
2023-03-26T07:54:41.251Z,99.99
2023-03-26T07:55:41.309Z,99.99
2023-03-26T07:56:41.518Z,99.99
2023-03-26T07:57:41.260Z,99.99
2023-03-26T07:58:41.068Z,99.99
2023-03-26T07:59:41.214Z,99.99
2023-03-26T08:00:40.971Z,99.99
2023-03-26T08:01:41.054Z,99.99
2023-03-26T08:02:40.934Z,99.99
2023-03-26T08:03:41.017Z,99.99
2023-03-26T08:04:40.832Z,99.99
2023-03-26T08:05:40.975Z,99.99
2023-03-26T08:06:40.797Z,99.99
2023-03-26T08:07:40.749Z,99.99
2023-03-26T08:08:40.615Z,99.99
2023-03-26T08:09:40.557Z,99.99
2023-03-26T08:10:40.518Z,99.99
2023-03-26T08:11:40.607Z,99.99
2023-03-26T08:12:40.453Z,99.99
2023-03-26T08:13:40.521Z,99.99
2023-03-26T08:14:40.330Z,99.99
2023-03-26T08:15:40.307Z,99.99
2023-03-26T08:16:40.233Z,99.99
2023-03-26T08:17:40.592Z,99.99
2023-03-26T08:18:40.154Z,99.99
2023-03-26T08:19:40.163Z,99.99
2023-03-26T08:20:40.065Z,99.99
2023-03-26T08:21:40.022Z,99.99
2023-03-26T08:22:39.989Z,99.99
2023-03-26T08:23:50.842Z,99.99
2023-03-26T08:24:39.892Z,99.99
2023-03-26T08:25:41.017Z,99.99
2023-03-26T08:26:39.795Z,99.99
2023-03-26T08:27:39.734Z,99.99
2023-03-26T08:28:39.984Z,99.99
2023-03-26T08:29:39.647Z,99.99
2023-03-26T08:30:41.696Z,99.99
2023-03-26T08:31:39.570Z,99.99
2023-03-26T08:32:39.635Z,99.99
2023-03-26T08:33:39.461Z,99.99
2023-03-26T08:34:39.644Z,99.99
2023-03-26T08:35:39.624Z,99.99
2023-03-26T08:36:39.556Z,99.99
2023-03-26T08:37:39.284Z,99.99
2023-03-26T08:38:39.334Z,99.99
2023-03-26T08:39:39.193Z,99.99
2023-03-26T08:40:39.352Z,99.99
2023-03-26T08:41:39.110Z,99.99
2023-03-26T08:42:40.215Z,99.99
2023-03-26T08:43:39.055Z,99.99
2023-03-26T08:44:38.997Z,99.99
2023-03-26T08:45:38.928Z,99.99
2023-03-26T08:46:40.229Z,99.99
2023-03-26T08:47:38.862Z,99.99
2023-03-26T08:48:39.044Z,99.99
2023-03-26T08:49:38.734Z,99.99
2023-03-26T08:50:38.706Z,99.99
2023-03-26T08:51:38.642Z,99.99
2023-03-26T08:52:38.662Z,99.99
2023-03-26T08:53:38.548Z,99.99
2023-03-26T08:54:38.666Z,99.99
2023-03-26T08:55:38.488Z,99.99
2023-03-26T08:56:38.476Z,99.99
2023-03-26T08:57:38.368Z,99.99
2023-03-26T08:58:38.499Z,99.99
2023-03-26T08:59:38.273Z,99.99
2023-03-26T09:00:38.319Z,99.99
2023-03-26T09:01:38.396Z,99.99
2023-03-26T09:02:38.252Z,99.99
2023-03-26T09:03:38.220Z,99.99
2023-03-26T09:04:38.128Z,99.99
2023-03-26T09:05:38.012Z,99.99
2023-03-26T09:06:38.160Z,99.99
2023-03-26T09:07:37.943Z,99.99
2023-03-26T09:08:37.882Z,99.99
2023-03-26T09:09:38.064Z,99.99
2023-03-26T09:10:37.926Z,99.99
2023-03-26T09:11:37.840Z,99.99
2023-03-26T09:12:37.698Z,99.99
2023-03-26T09:13:37.783Z,99.99
2023-03-26T09:14:37.763Z,99.99
2023-03-26T09:15:37.583Z,99.99
2023-03-26T09:16:37.644Z,99.99
2023-03-26T09:17:37.480Z,99.99
2023-03-26T09:18:37.618Z,99.99
2023-03-26T09:19:37.672Z,99.99
2023-03-26T09:20:37.335Z,99.99
2023-03-26T09:21:37.443Z,99.99
2023-03-26T09:22:37.255Z,99.99
2023-03-26T09:23:37.351Z,99.99
2023-03-26T09:24:37.159Z,99.99
2023-03-26T09:25:37.378Z,99.99
2023-03-26T09:26:37.149Z,99.99
2023-03-26T09:27:37.026Z,99.99
2023-03-26T09:28:37.141Z,99.99
2023-03-26T09:29:36.921Z,99.99
2023-03-26T09:30:38.180Z,99.99
2023-03-26T09:31:36.903Z,99.99
2023-03-26T09:32:36.816Z,99.99
2023-03-26T09:33:36.922Z,99.99
2023-03-26T09:34:36.704Z,99.99
2023-03-26T09:35:36.784Z,99.99
2023-03-26T09:36:36.783Z,99.99
2023-03-26T09:37:36.736Z,99.27
2023-03-26T09:38:36.748Z,98.51
2023-03-26T09:39:36.489Z,97.85
2023-03-26T09:40:36.506Z,98.22
2023-03-26T09:41:36.393Z,97.66
2023-03-26T09:42:36.742Z,98.75
2023-03-26T09:43:36.308Z,99.95
2023-03-26T09:44:36.258Z,98.61
2023-03-26T09:45:36.260Z,98.03
2023-03-26T09:46:36.176Z,98.13
2023-03-26T09:47:36.309Z,98.51
2023-03-26T09:48:36.123Z,97.66
2023-03-26T09:49:36.110Z,96.56
2023-03-26T09:50:35.999Z,96.56
2023-03-26T09:51:36.078Z,94.65
2023-03-26T09:52:35.901Z,94.17
2023-03-26T09:53:36.100Z,93.60
2023-03-26T09:54:36.961Z,93.93
2023-03-26T09:55:35.946Z,93.07
2023-03-26T09:56:36.837Z,92.97
2023-03-26T09:57:35.763Z,91.45
2023-03-26T09:58:35.643Z,90.69
2023-03-26T09:59:35.769Z,89.54
2023-03-26T10:00:35.585Z,88.68
2023-03-26T10:01:35.652Z,88.59
2023-03-26T10:02:46.180Z,88.87
2023-03-26T10:03:35.434Z,89.73
2023-03-26T10:04:35.619Z,88.63
2023-03-26T10:05:35.338Z,88.11
2023-03-26T10:06:35.822Z,87.10
2023-03-26T10:07:35.254Z,87.96
2023-03-26T10:08:35.214Z,86.34
2023-03-26T10:09:35.187Z,87.68
2023-03-26T10:10:35.124Z,88.11
2023-03-26T10:11:35.087Z,87.63
2023-03-26T10:12:35.061Z,87.25
2023-03-26T10:13:35.008Z,87.35
2023-03-26T10:14:35.006Z,86.77
2023-03-26T10:15:34.920Z,88.87
2023-03-26T10:16:35.083Z,87.20
2023-03-26T10:17:34.833Z,87.39
2023-03-26T10:18:34.938Z,86.91
2023-03-26T10:19:34.719Z,87.87
2023-03-26T10:20:34.676Z,86.34
2023-03-26T10:21:34.698Z,84.43
2023-03-26T10:22:34.665Z,85.29
2023-03-26T10:23:34.545Z,85.19
2023-03-26T10:24:34.668Z,84.91
2023-03-26T10:25:34.487Z,83.95
2023-03-26T10:26:34.414Z,83.57
2023-03-26T10:27:34.384Z,83.61
2023-03-26T10:28:34.459Z,82.08
2023-03-26T10:29:34.285Z,82.75
2023-03-26T10:30:34.558Z,81.60
2023-03-26T10:31:34.219Z,80.84
2023-03-26T10:32:34.443Z,81.51
2023-03-26T10:33:34.110Z,80.84
2023-03-26T10:34:34.233Z,82.37
2023-03-26T10:35:34.071Z,82.41
2023-03-26T10:36:34.105Z,82.03
2023-03-26T10:37:33.961Z,80.50
2023-03-26T10:38:34.146Z,79.54
2023-03-26T10:39:37.216Z,79.16
2023-03-26T10:40:33.971Z,79.35
2023-03-26T10:41:33.785Z,78.53
2023-03-26T10:42:33.879Z,77.15
2023-03-26T10:43:35.980Z,76.62
2023-03-26T10:44:33.688Z,77.00
2023-03-26T10:45:33.815Z,77.95
2023-03-26T10:46:33.795Z,77.86
2023-03-26T10:47:33.546Z,76.71
2023-03-26T10:48:33.501Z,75.47
2023-03-26T10:49:33.431Z,73.08
2023-03-26T10:50:33.518Z,72.69
2023-03-26T10:51:33.363Z,74.32
2023-03-26T10:52:34.658Z,73.75
2023-03-26T10:53:33.254Z,73.36
2023-03-26T10:54:33.313Z,73.17
2023-03-26T10:55:33.164Z,73.65
2023-03-26T10:56:33.402Z,73.27
2023-03-26T10:57:33.157Z,73.55
2023-03-26T10:58:49.597Z,73.75
2023-03-26T10:59:33.289Z,72.16
2023-03-26T11:00:33.042Z,72.73
2023-03-26T11:01:32.965Z,72.73
2023-03-26T11:02:33.018Z,71.97
2023-03-26T11:03:32.860Z,72.29
2023-03-26T11:04:32.798Z,72.61
2023-03-26T11:05:32.999Z,70.31
2023-03-26T11:06:32.914Z,69.74
2023-03-26T11:07:32.658Z,68.33
2023-03-26T11:08:32.934Z,66.74
2023-03-26T11:09:32.578Z,65.39
2023-03-26T11:10:32.708Z,64.63
2023-03-26T11:11:32.506Z,64.76
2023-03-26T11:12:32.652Z,64.09
2023-03-26T11:13:32.421Z,63.54
2023-03-26T11:14:35.245Z,63.06
2023-03-26T11:15:32.359Z,62.39
2023-03-26T11:16:32.299Z,60.75
2023-03-26T11:17:40.541Z,60.75
2023-03-26T11:18:32.212Z,62.01
2023-03-26T11:19:32.374Z,60.98
2023-03-26T11:20:32.429Z,59.19
2023-03-26T11:21:32.379Z,57.26
2023-03-26T11:22:33.205Z,56.52
2023-03-26T11:23:32.024Z,55.37
2023-03-26T11:24:32.201Z,54.77
2023-03-26T11:25:31.956Z,55.99
2023-03-26T11:26:32.213Z,55.99
2023-03-26T11:27:31.893Z,55.22
2023-03-26T11:28:31.816Z,57.01
2023-03-26T11:29:33.454Z,57.21
2023-03-26T11:30:31.750Z,57.78
2023-03-26T11:31:31.872Z,57.68
2023-03-26T11:32:31.699Z,58.23
2023-03-26T11:33:32.768Z,59.03
2023-03-26T11:34:31.866Z,57.95
2023-03-26T11:35:40.993Z,57.78
2023-03-26T11:36:31.520Z,56.51
2023-03-26T11:37:31.681Z,56.41
2023-03-26T11:38:31.427Z,56.31
2023-03-26T11:39:31.496Z,56.12
2023-03-26T11:40:31.497Z,56.15
2023-03-26T11:41:31.555Z,56.05
2023-03-26T11:42:31.526Z,54.55
2023-03-26T11:43:31.232Z,53.27
2023-03-26T11:44:31.320Z,53.78
2023-03-26T11:45:31.151Z,54.45
2023-03-26T11:46:31.932Z,54.16
2023-03-26T11:47:31.129Z,54.25
2023-03-26T11:48:31.123Z,54.33
2023-03-26T11:49:30.994Z,54.13
2023-03-26T11:50:32.098Z,54.21
2023-03-26T11:51:30.922Z,54.37
2023-03-26T11:52:33.330Z,54.15
2023-03-26T11:53:30.839Z,55.49
2023-03-26T11:54:30.886Z,56.26
2023-03-26T11:55:30.751Z,56.26
2023-03-26T11:56:31.065Z,56.07
2023-03-26T11:57:30.702Z,56.26
2023-03-26T11:58:32.854Z,57.09
2023-03-26T11:59:30.600Z,57.86
2023-03-26T12:00:30.832Z,58.24
2023-03-26T12:01:30.562Z,58.91
2023-03-26T12:02:31.950Z,59.11
2023-03-26T12:03:30.429Z,59.11
2023-03-26T12:04:31.960Z,60.16
2023-03-26T12:05:30.342Z,60.03
2023-03-26T12:06:30.456Z,61.47
2023-03-26T12:07:30.250Z,61.18
2023-03-26T12:08:32.541Z,61.85
2023-03-26T12:09:30.175Z,62.33
2023-03-26T12:10:30.300Z,63.00
2023-03-26T12:11:30.078Z,64.92
2023-03-26T12:12:30.200Z,64.69
2023-03-26T12:13:30.006Z,64.75
2023-03-26T12:14:30.208Z,66.25
2023-03-26T12:15:29.912Z,67.59
2023-03-26T12:16:31.002Z,68.84
2023-03-26T12:17:30.970Z,69.31
2023-03-26T12:18:29.782Z,70.17
2023-03-26T12:19:30.857Z,70.65
2023-03-26T12:20:30.918Z,73.55
2023-03-26T12:21:29.765Z,75.89
2023-03-26T12:22:29.608Z,75.73
2023-03-26T12:23:29.565Z,71.94
2023-03-26T12:24:29.665Z,69.10
2023-03-26T12:25:29.497Z,65.88
2023-03-26T12:26:29.681Z,64.47
2023-03-26T12:27:29.398Z,63.45
2023-03-26T12:28:29.690Z,62.26
2023-03-26T12:29:29.498Z,58.32
2023-03-26T12:30:29.324Z,56.36
2023-03-26T12:31:29.557Z,55.33
2023-03-26T12:32:39.473Z,54.56
2023-03-26T12:33:29.376Z,52.34
2023-03-26T12:34:29.135Z,52.32
2023-03-26T12:35:29.129Z,52.12
2023-03-26T12:36:29.051Z,52.10
2023-03-26T12:37:29.261Z,52.39
2023-03-26T12:38:28.967Z,52.48
2023-03-26T12:40:10.817Z,52.20
2023-03-26T12:40:29.114Z,49.99
2023-03-26T12:44:43.006Z,50.10
2023-03-26T12:44:53.177Z,49.79
2023-03-26T12:44:55.973Z,49.43
2023-03-26T12:44:56.402Z,49.84
2023-03-26T12:45:28.731Z,49.31
2023-03-26T12:47:56.130Z,50.34
2023-03-26T12:47:59.790Z,50.34
2023-03-26T12:48:28.613Z,50.25
2023-03-26T12:49:29.846Z,50.63
2023-03-26T12:50:34.117Z,50.13
2023-03-26T12:51:28.633Z,49.57
2023-03-26T12:52:28.700Z,48.90
2023-03-26T12:53:29.671Z,49.12
2023-03-26T12:54:28.353Z,47.80
2023-03-26T12:55:28.542Z,47.41
2023-03-26T12:56:28.511Z,46.64
2023-03-26T12:57:29.443Z,47.63
2023-03-26T12:58:28.222Z,46.95
2023-03-26T12:59:28.385Z,45.22
2023-03-26T13:00:28.118Z,45.32
2023-03-26T13:01:49.775Z,45.22
2023-03-26T13:02:28.187Z,44.55
2023-03-26T13:03:29.178Z,44.45
2023-03-26T13:04:27.977Z,45.29
2023-03-26T13:05:29.048Z,46.16
2023-03-26T13:06:28.033Z,46.26
2023-03-26T13:07:27.894Z,47.39
2023-03-26T13:08:29.317Z,47.58
2023-03-26T13:09:27.806Z,47.87
2023-03-26T13:10:28.060Z,48.16
2023-03-26T13:11:27.711Z,49.51
2023-03-26T13:12:27.683Z,48.04
2023-03-26T13:13:30.146Z,47.15
2023-03-26T13:14:27.598Z,48.18
2023-03-26T13:15:27.703Z,48.85
2023-03-26T13:16:27.601Z,49.43
2023-03-26T13:17:27.794Z,49.72
2023-03-26T13:18:27.438Z,50.29
2023-03-26T13:19:27.829Z,50.17
2023-03-26T13:20:27.383Z,50.84
2023-03-26T13:21:27.643Z,50.84
2023-03-26T13:22:27.298Z,50.27
2023-03-26T13:23:28.476Z,50.58
2023-03-26T13:24:27.511Z,50.29
2023-03-26T13:25:28.182Z,49.31
2023-03-26T13:26:27.125Z,50.75
2023-03-26T13:27:27.278Z,50.84
2023-03-26T13:28:27.058Z,50.82
2023-03-26T13:29:27.180Z,51.01
2023-03-26T13:30:27.073Z,50.70
2023-03-26T13:31:26.942Z,51.54
2023-03-26T13:32:27.060Z,51.73
2023-03-26T13:33:26.831Z,52.20
2023-03-26T13:34:27.834Z,53.33
2023-03-26T13:35:26.805Z,54.10
2023-03-26T13:36:26.993Z,55.73
2023-03-26T13:37:26.680Z,58.66
2023-03-26T13:38:27.683Z,61.41
2023-03-26T13:39:26.799Z,64.43
2023-03-26T13:40:28.694Z,67.33
2023-03-26T13:41:26.537Z,71.72
2023-03-26T13:42:26.776Z,75.70
2023-03-26T13:43:26.406Z,76.56
2023-03-26T13:44:26.569Z,77.03
2023-03-26T13:45:26.351Z,78.14
2023-03-26T13:46:27.582Z,79.19
2023-03-26T13:47:26.777Z,80.24
2023-03-26T13:48:26.399Z,81.63
2023-03-26T13:49:28.466Z,82.30
2023-03-26T13:50:26.115Z,83.54
2023-03-26T13:51:26.211Z,84.20
2023-03-26T13:52:26.019Z,82.68
2023-03-26T13:53:26.228Z,85.50
2023-03-26T13:54:25.926Z,87.45
2023-03-26T13:55:25.944Z,87.45
2023-03-26T13:56:25.843Z,84.92
2023-03-26T13:57:25.960Z,86.69
2023-03-26T13:58:25.771Z,87.69
2023-03-26T13:59:25.710Z,89.69
2023-03-26T14:00:25.892Z,90.45
2023-03-26T14:01:25.661Z,93.27
2023-03-26T14:02:25.609Z,94.79
2023-03-26T14:03:26.137Z,97.13
2023-03-26T14:04:25.482Z,99.46
2023-03-26T14:05:25.721Z,99.99
2023-03-26T14:06:25.390Z,99.99
2023-03-26T14:07:26.553Z,99.99
2023-03-26T14:08:25.317Z,99.99
2023-03-26T14:09:25.438Z,99.99
2023-03-26T14:10:25.236Z,99.99
2023-03-26T14:11:25.240Z,99.99
2023-03-26T14:12:25.118Z,99.99
2023-03-26T14:13:26.268Z,99.99
2023-03-26T14:14:25.051Z,99.99
2023-03-26T14:15:25.044Z,99.99
2023-03-26T14:16:26.036Z,99.99
2023-03-26T14:17:24.962Z,99.99
2023-03-26T14:18:24.974Z,99.99
2023-03-26T14:19:24.788Z,99.99
2023-03-26T14:20:24.759Z,99.99
2023-03-26T14:21:26.032Z,99.99
2023-03-26T14:22:24.656Z,99.99
2023-03-26T14:23:24.825Z,99.99
2023-03-26T14:24:24.627Z,99.99
2023-03-26T14:25:24.616Z,99.99
2023-03-26T14:26:24.460Z,99.99
2023-03-26T14:27:24.543Z,99.99
2023-03-26T14:28:24.375Z,99.99
2023-03-26T14:29:24.553Z,99.99
2023-03-26T14:30:24.282Z,99.99
2023-03-26T14:31:25.543Z,99.99
2023-03-26T14:32:24.470Z,99.99
2023-03-26T14:33:27.496Z,99.99
2023-03-26T14:34:24.094Z,99.99
2023-03-26T14:35:24.226Z,99.99
2023-03-26T14:36:23.998Z,99.99
2023-03-26T14:37:27.182Z,99.99
2023-03-26T14:38:23.908Z,99.99
2023-03-26T14:39:23.879Z,99.99
2023-03-26T14:40:25.859Z,99.99
2023-03-26T14:41:23.771Z,99.99
2023-03-26T14:42:23.931Z,99.99
2023-03-26T14:43:24.129Z,99.99
2023-03-26T14:44:23.745Z,99.99
2023-03-26T14:45:23.761Z,99.99
2023-03-26T14:46:23.639Z,99.99
2023-03-26T14:47:23.786Z,99.99
2023-03-26T14:48:23.528Z,99.99
2023-03-26T14:49:23.579Z,99.99
2023-03-26T14:50:23.365Z,99.99
2023-03-26T14:51:23.318Z,99.99
2023-03-26T14:52:23.485Z,99.99
2023-03-26T14:53:23.360Z,99.99
2023-03-26T14:54:23.439Z,99.99
2023-03-26T14:55:23.145Z,99.99
2023-03-26T14:56:23.222Z,99.99
2023-03-26T14:57:23.116Z,99.99
2023-03-26T14:58:22.991Z,99.99
2023-03-26T14:59:23.135Z,99.99
2023-03-26T15:00:22.926Z,99.99
2023-03-26T15:01:23.130Z,99.99
2023-03-26T15:02:23.087Z,99.99
2023-03-26T15:03:22.763Z,99.99
2023-03-26T15:04:22.759Z,99.99
2023-03-26T15:05:22.678Z,99.99
2023-03-26T15:06:23.700Z,99.99
2023-03-26T15:07:22.598Z,99.89
2023-03-26T15:08:22.698Z,97.36
2023-03-26T15:09:22.502Z,98.32
2023-03-26T15:10:23.519Z,98.36
2023-03-26T15:11:22.406Z,99.89
2023-03-26T15:12:22.411Z,99.69
2023-03-26T15:13:22.308Z,99.99
2023-03-26T15:14:22.422Z,99.99
2023-03-26T15:15:22.432Z,99.99
2023-03-26T15:16:22.190Z,99.03
2023-03-26T15:17:22.267Z,98.88
2023-03-26T15:18:22.084Z,99.99
2023-03-26T15:19:22.256Z,99.99
2023-03-26T15:20:22.008Z,99.99
2023-03-26T15:21:22.122Z,99.99
2023-03-26T15:22:24.114Z,99.99
2023-03-26T15:23:21.858Z,99.99
2023-03-26T15:24:22.908Z,99.99
2023-03-26T15:25:21.768Z,99.99
2023-03-26T15:26:21.893Z,99.99
2023-03-26T15:27:21.796Z,99.99
2023-03-26T15:28:21.627Z,99.99
2023-03-26T15:29:22.747Z,99.99
2023-03-26T15:30:23.858Z,99.99
2023-03-26T15:31:21.531Z,99.99
2023-03-26T15:32:21.449Z,99.60
2023-03-26T15:33:21.388Z,99.99
2023-03-26T15:34:21.445Z,98.65
2023-03-26T15:35:21.318Z,97.94
2023-03-26T15:36:21.378Z,98.60
2023-03-26T15:37:21.209Z,97.31
2023-03-26T15:38:21.387Z,97.41
2023-03-26T15:39:22.197Z,97.89
2023-03-26T15:40:21.105Z,98.08
2023-03-26T15:41:21.182Z,98.84
2023-03-26T15:42:20.983Z,98.51
2023-03-26T15:43:21.029Z,98.41
2023-03-26T15:44:23.061Z,97.08
2023-03-26T15:45:20.844Z,94.93
2023-03-26T15:46:23.292Z,94.98
2023-03-26T15:47:20.752Z,94.74
2023-03-26T15:48:20.741Z,97.45
2023-03-26T15:49:20.665Z,98.64
2023-03-26T15:50:22.810Z,99.99
2023-03-26T15:51:20.652Z,99.99
2023-03-26T15:52:20.562Z,99.99
2023-03-26T15:53:20.583Z,99.99
2023-03-26T15:54:20.430Z,99.99
2023-03-26T15:55:20.475Z,99.99
2023-03-26T15:56:20.343Z,99.99
2023-03-26T15:57:20.322Z,99.99
2023-03-26T15:58:20.337Z,99.99
2023-03-26T15:59:20.295Z,99.99
2023-03-26T16:00:20.152Z,99.99
2023-03-26T16:01:20.236Z,99.99
2023-03-26T16:02:20.132Z,99.99
2023-03-26T16:03:20.117Z,99.99
2023-03-26T16:04:19.998Z,99.99
2023-03-26T16:05:20.068Z,99.99
2023-03-26T16:06:19.867Z,99.99
2023-03-26T16:07:22.005Z,99.99
2023-03-26T16:08:19.772Z,99.99
2023-03-26T16:09:19.965Z,99.99
2023-03-26T16:10:19.801Z,99.99
2023-03-26T16:11:19.869Z,99.99
2023-03-26T16:12:19.581Z,99.99
2023-03-26T16:13:19.727Z,99.99
2023-03-26T16:14:20.902Z,99.99
2023-03-26T16:15:19.546Z,99.99
2023-03-26T16:16:19.554Z,99.99
2023-03-26T16:17:19.520Z,99.99
2023-03-26T16:18:19.314Z,99.99
2023-03-26T16:19:19.722Z,99.99
2023-03-26T16:20:19.212Z,99.99
2023-03-26T16:21:32.137Z,99.99
2023-03-26T16:22:19.118Z,99.99
2023-03-26T16:23:19.239Z,99.99
2023-03-26T16:24:19.018Z,99.99
2023-03-26T16:25:27.116Z,99.99
2023-03-26T16:26:18.928Z,99.99
2023-03-26T16:27:19.266Z,99.99
2023-03-26T16:28:18.833Z,99.99
2023-03-26T16:29:18.993Z,99.99
2023-03-26T16:30:20.756Z,99.99
2023-03-26T16:31:35.014Z,99.99
2023-03-26T16:32:18.735Z,99.99
2023-03-26T16:33:18.808Z,99.99
2023-03-26T16:34:18.615Z,99.99
2023-03-26T16:35:18.671Z,99.99
2023-03-26T16:36:18.630Z,99.99
2023-03-26T16:37:18.414Z,99.99
2023-03-26T16:38:19.461Z,99.99
2023-03-26T16:39:18.320Z,99.99
2023-03-26T16:40:18.494Z,99.99
2023-03-26T16:41:18.470Z,99.99
2023-03-26T16:42:18.215Z,99.99
2023-03-26T16:43:18.272Z,99.99
2023-03-26T16:44:18.093Z,99.99
2023-03-26T16:45:19.206Z,99.79
2023-03-26T16:46:18.407Z,96.46
2023-03-26T16:47:17.956Z,94.27
2023-03-26T16:48:17.997Z,93.51
2023-03-26T16:49:17.852Z,91.61
2023-03-26T16:50:18.005Z,90.56
2023-03-26T16:51:17.759Z,89.32
2023-03-26T16:52:17.742Z,89.70
2023-03-26T16:53:17.935Z,90.94
2023-03-26T16:54:17.620Z,91.13
2023-03-26T16:55:18.759Z,91.99
2023-03-26T16:56:17.529Z,92.13
2023-03-26T16:57:17.592Z,92.22
2023-03-26T16:58:17.436Z,92.70
2023-03-26T16:59:17.636Z,92.89
2023-03-26T17:00:17.358Z,93.65
2023-03-26T17:01:18.106Z,92.99
2023-03-26T17:02:17.380Z,93.27
2023-03-26T17:03:17.313Z,93.55
2023-03-26T17:04:17.389Z,93.18
2023-03-26T17:05:17.165Z,94.32
2023-03-26T17:06:17.411Z,94.89
2023-03-26T17:07:17.017Z,94.79
2023-03-26T17:08:17.220Z,95.27
2023-03-26T17:09:16.947Z,95.27
2023-03-26T17:10:19.074Z,96.17
2023-03-26T17:11:16.842Z,97.27
2023-03-26T17:12:17.040Z,97.78
2023-03-26T17:13:16.758Z,98.22
2023-03-26T17:14:16.953Z,99.02
2023-03-26T17:15:16.699Z,98.74
2023-03-26T17:16:16.809Z,96.93
2023-03-26T17:17:16.557Z,96.98
2023-03-26T17:18:17.696Z,97.64
2023-03-26T17:19:16.465Z,99.07
2023-03-26T17:20:17.607Z,99.45
2023-03-26T17:21:16.648Z,99.99
2023-03-26T17:22:16.399Z,99.99
2023-03-26T17:23:16.310Z,99.99
2023-03-26T17:24:16.336Z,99.74
2023-03-26T17:25:16.426Z,99.99
2023-03-26T17:26:16.178Z,99.99
2023-03-26T17:27:37.336Z,99.99
2023-03-26T17:28:16.051Z,99.99
2023-03-26T17:29:18.189Z,99.99
2023-03-26T17:30:15.954Z,99.99
2023-03-26T17:31:16.189Z,99.99
2023-03-26T17:32:15.882Z,99.99
2023-03-26T17:33:17.913Z,99.99
2023-03-26T17:34:15.765Z,99.99
2023-03-26T17:35:16.907Z,99.99
2023-03-26T17:36:15.678Z,99.99
2023-03-26T17:37:16.793Z,99.99
2023-03-26T17:38:15.763Z,99.99
2023-03-26T17:39:17.770Z,99.99
2023-03-26T17:40:15.496Z,99.99
2023-03-26T17:41:16.481Z,99.99
2023-03-26T17:42:16.547Z,99.99
2023-03-26T17:43:15.356Z,99.99
2023-03-26T17:44:15.538Z,99.99
2023-03-26T17:45:15.248Z,99.99
2023-03-26T17:46:15.488Z,99.99
2023-03-26T17:47:15.160Z,99.99
2023-03-26T17:48:15.119Z,99.99
2023-03-26T17:49:15.288Z,99.99
2023-03-26T17:50:15.326Z,99.99
2023-03-26T17:51:16.098Z,99.99
2023-03-26T17:52:14.929Z,99.99
2023-03-26T17:53:15.093Z,99.99
2023-03-26T17:54:14.852Z,99.99
2023-03-26T17:55:14.786Z,99.99
2023-03-26T17:56:14.920Z,99.99
2023-03-26T17:57:15.010Z,99.99
2023-03-26T17:58:14.718Z,99.99
2023-03-26T17:59:14.603Z,99.99
2023-03-26T18:00:14.649Z,99.99
2023-03-26T18:01:14.558Z,99.99
2023-03-26T18:02:15.695Z,99.99
2023-03-26T18:03:15.802Z,99.99
2023-03-26T18:04:15.589Z,99.99
2023-03-26T18:05:14.321Z,99.99
2023-03-26T18:06:14.371Z,99.99
2023-03-26T18:07:14.480Z,99.99
2023-03-26T18:08:14.179Z,99.99
2023-03-26T18:09:15.537Z,99.99
2023-03-26T18:10:14.109Z,99.99
2023-03-26T18:11:15.127Z,99.99
2023-03-26T18:12:14.005Z,99.99
2023-03-26T18:13:13.952Z,99.99
2023-03-26T18:14:14.044Z,99.99
2023-03-26T18:15:13.918Z,99.99
2023-03-26T18:16:14.097Z,99.99
2023-03-26T18:17:13.806Z,99.99
2023-03-26T18:18:14.180Z,99.99
2023-03-26T18:19:13.685Z,99.99
2023-03-26T18:20:13.769Z,99.99
2023-03-26T18:21:13.568Z,99.99
2023-03-26T18:22:13.574Z,99.99
2023-03-26T18:23:13.485Z,99.99
2023-03-26T18:24:13.705Z,99.99
2023-03-26T18:25:13.393Z,99.99
2023-03-26T18:26:13.354Z,99.99
2023-03-26T18:27:13.588Z,99.99
2023-03-26T18:28:13.238Z,99.99
2023-03-26T18:29:13.322Z,99.99
2023-03-26T18:30:13.159Z,99.99
2023-03-26T18:31:13.327Z,99.99
2023-03-26T18:32:13.260Z,99.99
2023-03-26T18:33:14.199Z,99.99
2023-03-26T18:34:12.953Z,99.99
2023-03-26T18:35:14.277Z,99.99
2023-03-26T18:36:12.873Z,99.99
2023-03-26T18:37:13.069Z,99.99
2023-03-26T18:38:12.882Z,99.99
2023-03-26T18:39:12.722Z,99.99
2023-03-26T18:40:12.886Z,99.99
2023-03-26T18:41:12.659Z,99.99
2023-03-26T18:42:22.863Z,99.99
2023-03-26T18:43:15.648Z,99.99
2023-03-26T18:44:13.765Z,99.99
2023-03-26T18:45:12.451Z,99.99
2023-03-26T18:46:13.665Z,99.99
2023-03-26T18:47:12.577Z,99.99
2023-03-26T18:48:12.532Z,99.99
2023-03-26T18:49:12.262Z,99.99
2023-03-26T18:50:12.197Z,99.99
2023-03-26T18:51:12.179Z,99.99
2023-03-26T18:52:12.248Z,99.99
2023-03-26T18:53:12.093Z,99.99
2023-03-26T18:54:12.157Z,99.99
2023-03-26T18:55:11.970Z,99.99